Time;durP1;ratioP1;P1;durP2;ratioP2;P2;SDS_P1;SDS_P2;PMS_P1;PMS_P2;Temp;Humidity;BMP_temperature;BMP_pressure;BME280_temperature;BME280_humidity;BME280_pressure;Samples;Min_cycle;Max_cycle;Signal;HPM_P1;HPM_P2
2021/06/17 00:00:21;;;;;;;10.20;9.10;;;20.00;80.70;;;;;;5051056;28;20057;-75
2021/06/17 00:02:48;;;;;;;9.70;7.70;;;20.00;80.90;;;;;;5050931;28;20055;-75
2021/06/17 00:05:17;;;;;;;10.90;8.43;;;19.90;81.10;;;;;;5051309;28;20126;-75
2021/06/17 00:07:44;;;;;;;11.20;8.13;;;19.90;81.30;;;;;;5051596;28;20478;-75
2021/06/17 00:10:17;;;;;;;9.70;8.70;;;19.90;81.70;;;;;;5050136;28;20486;-75
2021/06/17 00:12:43;;;;;;;9.47;8.67;;;19.90;81.80;;;;;;5051524;28;20124;-76
2021/06/17 00:15:10;;;;;;;10.93;9.13;;;19.80;82.10;;;;;;5051072;28;20140;-75
2021/06/17 00:17:36;;;;;;;9.87;8.70;;;19.70;82.50;;;;;;5050727;28;20078;-75
2021/06/17 00:20:04;;;;;;;10.63;9.53;;;19.70;82.70;;;;;;5051177;28;20382;-75
2021/06/17 00:22:29;;;;;;;12.33;10.13;;;19.70;83.10;;;;;;5051522;28;20052;-75
2021/06/17 00:24:55;;;;;;;10.77;8.83;;;19.60;83.50;;;;;;5050700;28;20476;-75
2021/06/17 00:27:21;;;;;;;10.77;9.37;;;19.60;83.80;;;;;;5051165;28;20053;-75
2021/06/17 00:29:47;;;;;;;10.50;9.43;;;19.60;83.90;;;;;;5051276;28;20045;-75
2021/06/17 00:32:12;;;;;;;11.27;9.47;;;19.60;84.00;;;;;;5050100;28;20052;-74
2021/06/17 00:34:38;;;;;;;10.97;9.63;;;19.60;84.10;;;;;;5050918;28;20088;-75
2021/06/17 00:37:04;;;;;;;12.73;10.10;;;19.60;84.10;;;;;;5050121;28;20049;-75
2021/06/17 00:39:29;;;;;;;11.47;10.27;;;19.60;84.10;;;;;;5051498;28;20130;-75
2021/06/17 00:41:55;;;;;;;10.77;9.67;;;19.50;84.10;;;;;;5051263;28;20536;-75
2021/06/17 00:44:21;;;;;;;11.13;10.10;;;19.60;84.40;;;;;;5049760;28;20151;-75
2021/06/17 00:46:46;;;;;;;12.60;10.67;;;19.50;84.50;;;;;;5051239;28;20125;-75
2021/06/17 00:49:12;;;;;;;13.90;11.63;;;19.50;84.60;;;;;;5050735;28;20076;-74
2021/06/17 00:51:38;;;;;;;12.63;11.33;;;19.50;84.80;;;;;;5050233;28;20128;-75
2021/06/17 00:54:04;;;;;;;13.23;10.77;;;19.40;84.80;;;;;;5054548;28;20048;-75
2021/06/17 00:56:30;;;;;;;12.77;10.70;;;19.40;85.00;;;;;;5055145;28;20093;-75
2021/06/17 00:58:57;;;;;;;14.37;11.20;;;19.30;85.20;;;;;;5054252;28;20052;-75
2021/06/17 01:01:23;;;;;;;13.93;12.53;;;19.30;85.60;;;;;;5054900;28;20053;-75
2021/06/17 01:03:49;;;;;;;13.40;12.10;;;19.30;85.60;;;;;;5055005;28;20107;-75
2021/06/17 01:06:15;;;;;;;14.77;13.27;;;19.20;85.50;;;;;;5053957;28;20139;-75
2021/06/17 01:09:07;;;;;;;14.77;13.23;;;19.20;85.80;;;;;;5054928;28;20137;-75
2021/06/17 01:12:27;;;;;;;13.57;11.63;;;19.20;85.90;;;;;;5054776;28;20075;-75
2021/06/17 01:15:00;;;;;;;15.07;13.47;;;19.20;85.90;;;;;;4973588;28;20051;-75
2021/06/17 01:17:29;;;;;;;13.83;12.43;;;19.10;86.00;;;;;;5052272;28;20072;-75
2021/06/17 01:20:12;;;;;;;14.37;11.67;;;19.10;86.30;;;;;;5053842;28;20073;-75
2021/06/17 01:22:55;;;;;;;13.63;11.83;;;19.10;86.40;;;;;;5054799;28;20045;-75
2021/06/17 01:25:58;;;;;;;15.60;13.97;;;19.10;86.30;;;;;;5054014;28;20102;-75
2021/06/17 01:28:24;;;;;;;17.57;14.40;;;19.10;86.30;;;;;;5053759;28;20136;-75
2021/06/17 01:30:57;;;;;;;16.30;12.90;;;19.00;86.40;;;;;;5054447;28;20045;-75
2021/06/17 01:33:30;;;;;;;16.47;14.30;;;19.10;86.60;;;;;;5053569;28;20429;-75
2021/06/17 01:36:00;;;;;;;14.17;12.77;;;19.00;86.80;;;;;;5054445;28;20079;-75
2021/06/17 01:38:26;;;;;;;16.60;13.10;;;19.00;87.00;;;;;;5054761;28;20069;-75
2021/06/17 01:40:53;;;;;;;16.70;15.10;;;19.00;87.20;;;;;;5053506;28;20114;-75
2021/06/17 01:43:21;;;;;;;16.30;14.80;;;19.00;87.30;;;;;;5053630;28;20485;-75
2021/06/17 01:45:48;;;;;;;16.83;15.07;;;19.00;87.40;;;;;;5053967;28;20354;-75
2021/06/17 01:48:15;;;;;;;16.90;15.30;;;19.00;87.50;;;;;;5053213;28;20052;-75
2021/06/17 01:50:46;;;;;;;16.43;14.93;;;18.90;87.70;;;;;;5054028;28;20128;-75
2021/06/17 01:53:14;;;;;;;18.17;16.17;;;18.90;87.90;;;;;;5053741;28;20060;-75
2021/06/17 01:55:40;;;;;;;16.47;14.93;;;18.90;88.00;;;;;;5053162;28;20082;-75
2021/06/17 01:58:12;;;;;;;19.10;17.40;;;18.90;88.20;;;;;;5053606;28;20049;-75
2021/06/17 02:00:42;;;;;;;19.63;17.63;;;18.90;88.40;;;;;;5053990;28;20110;-75
2021/06/17 02:03:09;;;;;;;20.00;17.95;;;18.90;88.50;;;;;;5052658;28;20057;-75
2021/06/17 02:05:36;;;;;;;21.90;19.83;;;18.80;88.40;;;;;;5052664;28;20174;-75
2021/06/17 02:08:04;;;;;;;22.53;20.50;;;18.80;88.70;;;;;;5053189;28;20511;-75
2021/06/17 02:10:31;;;;;;;19.50;17.70;;;18.70;88.90;;;;;;5053012;28;20057;-75
2021/06/17 02:12:57;;;;;;;17.93;16.17;;;18.70;89.30;;;;;;5053351;28;20057;-75
2021/06/17 02:15:27;;;;;;;17.93;16.23;;;18.70;89.50;;;;;;5053232;28;20478;-75
2021/06/17 02:17:54;;;;;;;24.10;21.80;;;18.70;89.50;;;;;;5053582;28;20462;-75
2021/06/17 02:20:39;;;;;;;23.27;20.87;;;18.70;89.70;;;;;;5053196;28;20071;-75
2021/06/17 02:23:09;;;;;;;23.60;21.07;;;18.70;89.70;;;;;;5052530;28;20049;-75
2021/06/17 02:25:35;;;;;;;26.73;24.23;;;18.60;89.80;;;;;;5053216;28;20049;-74
2021/06/17 02:28:06;;;;;;;25.90;23.60;;;18.60;89.90;;;;;;5052888;28;20552;-75
2021/06/17 02:30:36;;;;;;;22.95;20.75;;;18.60;90.10;;;;;;5052567;28;20049;-75
2021/06/17 02:33:05;;;;;;;21.87;19.87;;;18.50;90.10;;;;;;5052967;28;20450;-75
2021/06/17 02:35:32;;;;;;;23.87;21.40;;;18.50;90.30;;;;;;5052707;28;20060;-75
2021/06/17 02:38:02;;;;;;;23.33;21.13;;;18.50;90.40;;;;;;5051843;28;20056;-75
2021/06/17 02:40:30;;;;;;;26.13;23.43;;;18.50;90.40;;;;;;5053135;28;20045;-75
2021/06/17 02:42:57;;;;;;;19.50;17.57;;;18.50;90.50;;;;;;5052916;28;20444;-74
2021/06/17 02:45:30;;;;;;;22.40;20.20;;;18.50;90.50;;;;;;5052260;28;20083;-75
2021/06/17 02:47:56;;;;;;;22.20;19.90;;;18.50;90.50;;;;;;5052971;28;20070;-75
2021/06/17 02:50:23;;;;;;;25.47;23.07;;;18.50;90.90;;;;;;5052667;28;20383;-75
2021/06/17 02:52:48;;;;;;;28.67;26.07;;;18.60;90.50;;;;;;5051950;28;20063;-75
2021/06/17 02:55:14;;;;;;;25.93;23.60;;;18.60;90.50;;;;;;5052486;28;20550;-75
2021/06/17 02:58:03;;;;;;;28.77;26.00;;;18.60;90.60;;;;;;5052133;28;20044;-74
2021/06/17 03:00:33;;;;;;;28.40;25.73;;;18.60;90.70;;;;;;5052308;28;20049;-75
2021/06/17 03:03:15;;;;;;;27.70;25.20;;;18.60;90.80;;;;;;5052093;28;20413;-75
2021/06/17 03:05:46;;;;;;;28.93;26.33;;;18.60;90.80;;;;;;5052079;28;20053;-75
2021/06/17 03:08:24;;;;;;;29.23;26.47;;;18.60;90.90;;;;;;5052415;28;20049;-75
2021/06/17 03:10:52;;;;;;;30.47;27.63;;;18.50;90.90;;;;;;5052763;28;20048;-75
2021/06/17 03:13:24;;;;;;;25.33;22.73;;;18.50;91.00;;;;;;5051158;28;20110;-75
2021/06/17 03:15:51;;;;;;;26.17;23.77;;;18.50;91.10;;;;;;5051355;28;20064;-74
2021/06/17 03:18:18;;;;;;;27.57;25.03;;;18.50;91.10;;;;;;5052300;28;20111;-75
2021/06/17 03:20:46;;;;;;;27.40;24.80;;;18.40;91.20;;;;;;5051606;28;20145;-75
2021/06/17 03:23:19;;;;;;;25.37;22.97;;;18.40;91.30;;;;;;5052385;28;20132;-75
2021/06/17 03:25:50;;;;;;;31.07;28.23;;;18.40;91.50;;;;;;5052378;28;20136;-75
2021/06/17 03:28:17;;;;;;;28.83;26.27;;;18.40;91.50;;;;;;5052082;28;20452;-75
2021/06/17 03:30:47;;;;;;;32.70;29.53;;;18.30;91.50;;;;;;5052064;28;20560;-75
2021/06/17 03:33:16;;;;;;;34.37;30.93;;;18.40;91.70;;;;;;5051007;28;20105;-75
2021/06/17 03:35:42;;;;;;;35.03;31.33;;;18.40;91.70;;;;;;5051970;28;20144;-75
2021/06/17 03:38:09;;;;;;;30.97;28.10;;;18.30;91.80;;;;;;5051720;28;20076;-75
2021/06/17 03:40:36;;;;;;;36.07;32.80;;;18.30;91.80;;;;;;5051107;28;20049;-75
2021/06/17 03:43:03;;;;;;;38.63;34.63;;;18.30;91.90;;;;;;5051355;28;20049;-74
2021/06/17 03:45:30;;;;;;;37.77;34.50;;;18.30;92.00;;;;;;5051909;28;20045;-75
2021/06/17 03:47:57;;;;;;;40.87;37.30;;;18.40;92.00;;;;;;5051094;28;20071;-75
2021/06/17 03:50:25;;;;;;;39.20;35.57;;;18.50;92.50;;;;;;5051920;28;20056;-74
2021/06/17 03:52:55;;;;;;;39.07;35.53;;;18.50;92.10;;;;;;5051756;28;20045;-75
2021/06/17 03:55:21;;;;;;;38.83;35.33;;;18.50;92.10;;;;;;5050819;28;20060;-75
2021/06/17 03:57:49;;;;;;;40.03;36.37;;;18.50;92.10;;;;;;5051895;28;20080;-75
2021/06/17 04:00:17;;;;;;;42.67;38.50;;;18.40;92.20;;;;;;5051510;28;20045;-75
2021/06/17 04:02:43;;;;;;;34.77;31.33;;;18.50;92.20;;;;;;5051372;28;20073;-75
2021/06/17 04:05:09;;;;;;;36.27;32.97;;;18.50;92.20;;;;;;5051474;28;20045;-75
2021/06/17 04:07:39;;;;;;;38.33;34.67;;;18.50;92.20;;;;;;5051902;28;20049;-75
2021/06/17 04:10:07;;;;;;;37.83;34.43;;;18.50;92.20;;;;;;5051012;28;20045;-75
2021/06/17 04:12:37;;;;;;;35.63;32.57;;;18.50;92.30;;;;;;5051699;28;20053;-75
2021/06/17 04:15:04;;;;;;;37.97;34.53;;;18.50;92.30;;;;;;5050669;28;20095;-75
2021/06/17 04:17:39;;;;;;;38.27;34.80;;;18.50;92.30;;;;;;5051666;28;20123;-75
2021/06/17 04:20:11;;;;;;;38.90;35.17;;;18.60;92.40;;;;;;5051415;28;20041;-75
2021/06/17 04:22:42;;;;;;;40.20;36.50;;;18.60;92.40;;;;;;5050857;28;20536;-75
2021/06/17 04:25:09;;;;;;;39.83;36.23;;;18.60;92.50;;;;;;5051415;28;20044;-75
2021/06/17 04:27:36;;;;;;;40.53;37.03;;;18.60;92.50;;;;;;5051056;28;20490;-75
2021/06/17 04:30:04;;;;;;;39.67;36.27;;;18.70;92.70;;;;;;5050092;28;20106;-75
2021/06/17 04:32:30;;;;;;;41.97;38.13;;;18.70;92.70;;;;;;5051270;28;20076;-75
2021/06/17 04:34:57;;;;;;;40.73;36.87;;;18.70;92.70;;;;;;5051339;28;20061;-75
2021/06/17 04:37:26;;;;;;;40.40;36.83;;;18.80;92.70;;;;;;5050252;28;20041;-75
2021/06/17 04:39:57;;;;;;;39.10;35.40;;;18.90;92.60;;;;;;5051120;28;20037;-76
2021/06/17 04:42:24;;;;;;;38.63;35.33;;;18.90;92.80;;;;;;5050879;28;20483;-75
2021/06/17 04:44:51;;;;;;;36.93;33.90;;;19.00;92.60;;;;;;5050227;28;20048;-76
2021/06/17 04:47:18;;;;;;;40.20;36.50;;;19.10;92.50;;;;;;5050606;28;20052;-75
2021/06/17 04:49:44;;;;;;;38.13;34.40;;;19.20;92.30;;;;;;5050952;28;20064;-75
2021/06/17 04:52:20;;;;;;;40.00;36.23;;;19.20;92.10;;;;;;5049956;28;20053;-76
2021/06/17 04:54:46;;;;;;;37.53;34.07;;;19.20;92.10;;;;;;5048805;28;20048;-75
2021/06/17 04:57:12;;;;;;;39.13;35.53;;;19.20;92.10;;;;;;5050068;28;20140;-75
2021/06/17 04:59:38;;;;;;;39.17;35.70;;;19.20;92.20;;;;;;5050306;28;20099;-76
2021/06/17 05:02:04;;;;;;;39.17;35.73;;;19.20;92.20;;;;;;5050500;28;20045;-76
2021/06/17 05:04:30;;;;;;;40.30;36.70;;;19.30;92.30;;;;;;5049924;28;20547;-75
2021/06/17 05:12:16;;;;;;;40.10;36.20;;;19.50;92.10;;;;;;5046268;28;20052;-75
2021/06/17 05:14:42;;;;;;;37.67;34.37;;;19.50;92.10;;;;;;5047784;28;20098;-75
2021/06/17 05:17:08;;;;;;;37.67;34.23;;;19.60;92.10;;;;;;5050191;28;20041;-75
2021/06/17 05:19:34;;;;;;;37.43;34.03;;;19.70;92.00;;;;;;5049754;28;20037;-75
2021/06/17 05:22:00;;;;;;;36.43;33.27;;;19.90;91.80;;;;;;5050035;28;20096;-75
2021/06/17 05:24:26;;;;;;;36.23;33.03;;;19.90;91.60;;;;;;5050726;28;20091;-75
2021/06/17 05:26:52;;;;;;;37.17;33.97;;;20.00;91.50;;;;;;5049542;28;20478;-76
2021/06/17 05:29:18;;;;;;;36.07;32.87;;;20.00;91.50;;;;;;5050024;28;20076;-76
2021/06/17 05:31:45;;;;;;;35.70;32.50;;;20.00;91.50;;;;;;5050544;28;20086;-75
2021/06/17 05:34:10;;;;;;;34.53;31.47;;;20.10;91.40;;;;;;5048885;28;20126;-76
2021/06/17 05:36:46;;;;;;;33.80;30.87;;;20.20;91.30;;;;;;5050752;28;20057;-76
2021/06/17 05:39:12;;;;;;;30.60;28.00;;;20.30;91.20;;;;;;5050780;28;20052;-76
2021/06/17 05:41:37;;;;;;;29.30;26.87;;;20.40;91.20;;;;;;5052682;28;20090;-76
2021/06/17 05:44:03;;;;;;;29.83;27.23;;;20.50;90.90;;;;;;5053471;28;20052;-76
2021/06/17 05:46:29;;;;;;;29.93;27.20;;;20.60;90.70;;;;;;5053385;28;20208;-76
2021/06/17 05:48:55;;;;;;;27.83;25.30;;;20.80;90.50;;;;;;5053772;28;20049;-76
2021/06/17 05:51:20;;;;;;;31.77;28.90;;;20.90;90.20;;;;;;5053738;28;20053;-76
2021/06/17 05:53:46;;;;;;;28.97;26.37;;;20.90;90.10;;;;;;5052548;28;20116;-76
2021/06/17 05:56:11;;;;;;;27.40;25.00;;;21.00;90.10;;;;;;5053320;28;20521;-76
2021/06/17 05:58:37;;;;;;;28.63;26.13;;;21.00;89.70;;;;;;5052900;28;20056;-76
2021/06/17 06:01:03;;;;;;;30.70;27.77;;;21.10;89.50;;;;;;5049186;28;20490;-76
2021/06/17 06:03:29;;;;;;;29.33;26.93;;;21.30;89.30;;;;;;5052707;28;20052;-76
2021/06/17 06:05:55;;;;;;;28.73;26.13;;;21.40;88.70;;;;;;5052832;28;20033;-76
2021/06/17 06:08:20;;;;;;;28.53;25.87;;;21.50;88.40;;;;;;5051686;28;20510;-76
2021/06/17 06:10:47;;;;;;;27.90;25.33;;;21.50;88.40;;;;;;5053340;28;20056;-76
2021/06/17 06:13:14;;;;;;;27.03;24.40;;;21.60;88.50;;;;;;5052731;28;20051;-76
2021/06/17 06:15:40;;;;;;;28.00;25.60;;;21.60;88.50;;;;;;5052042;28;20052;-76
2021/06/17 06:18:08;;;;;;;27.90;25.17;;;21.60;88.50;;;;;;5052200;28;20057;-75
2021/06/17 06:20:34;;;;;;;26.83;24.43;;;21.60;88.30;;;;;;5052915;28;20052;-76
2021/06/17 06:23:00;;;;;;;27.67;24.83;;;21.70;88.20;;;;;;5051723;28;20457;-76
2021/06/17 06:25:27;;;;;;;25.17;22.93;;;21.80;87.90;;;;;;5053052;28;20052;-75
2021/06/17 06:27:53;;;;;;;26.37;23.87;;;21.80;87.70;;;;;;5052681;28;20091;-76
2021/06/17 06:30:19;;;;;;;26.33;23.90;;;21.90;87.30;;;;;;5051970;28;20037;-76
2021/06/17 06:32:45;;;;;;;24.23;21.97;;;21.90;87.10;;;;;;5052641;28;20051;-76
2021/06/17 06:35:11;;;;;;;23.57;21.03;;;22.10;86.60;;;;;;5052298;28;20053;-76
2021/06/17 06:37:38;;;;;;;23.40;21.27;;;22.10;86.20;;;;;;5051668;28;20057;-75
2021/06/17 06:40:05;;;;;;;22.90;20.80;;;22.20;85.80;;;;;;5049922;28;20049;-76
2021/06/17 06:42:31;;;;;;;23.08;20.70;;;22.30;85.60;;;;;;5052568;28;20071;-76
2021/06/17 06:44:57;;;;;;;22.33;20.33;;;22.30;85.50;;;;;;5051540;28;20466;-75
2021/06/17 06:47:22;;;;;;;22.77;20.35;;;22.40;85.60;;;;;;5052099;28;20098;-75
2021/06/17 06:49:48;;;;;;;21.25;19.38;;;22.50;85.60;;;;;;5051375;28;20048;-76
2021/06/17 06:52:14;;;;;;;21.17;19.30;;;22.60;85.30;;;;;;5052408;28;20117;-76
2021/06/17 06:54:39;;;;;;;20.88;18.75;;;22.80;84.60;;;;;;5052444;28;20424;-76
2021/06/17 06:57:05;;;;;;;18.70;16.98;;;22.80;84.30;;;;;;5051207;28;20406;-76
2021/06/17 06:59:31;;;;;;;18.50;16.67;;;23.00;83.70;;;;;;5051845;28;20171;-76
2021/06/17 07:01:57;;;;;;;18.67;15.20;;;23.10;82.60;;;;;;5052028;28;20076;-76
2021/06/17 07:04:23;;;;;;;17.25;15.73;;;23.30;81.20;;;;;;5051199;28;20040;-76
2021/06/17 07:06:49;;;;;;;15.90;14.40;;;23.40;80.60;;;;;;5052192;28;20091;-76
2021/06/17 07:09:14;;;;;;;14.57;13.30;;;23.40;80.10;;;;;;5052124;28;20044;-75
2021/06/17 07:11:41;;;;;;;15.00;13.20;;;23.60;79.60;;;;;;5051070;28;20489;-75
2021/06/17 07:14:07;;;;;;;14.13;12.25;;;23.70;79.20;;;;;;5051743;28;20094;-75
2021/06/17 07:16:33;;;;;;;12.52;11.25;;;23.80;78.30;;;;;;5052385;28;20094;-75
2021/06/17 07:19:01;;;;;;;14.10;12.57;;;23.90;77.40;;;;;;5050051;28;20103;-75
2021/06/17 07:21:29;;;;;;;13.55;12.05;;;24.00;76.90;;;;;;5051684;28;20072;-76
2021/06/17 07:23:55;;;;;;;14.05;10.65;;;24.20;76.60;;;;;;5051357;28;20122;-76
2021/06/17 07:26:26;;;;;;;11.80;10.65;;;24.30;75.90;;;;;;5050532;28;20108;-76
2021/06/17 07:28:51;;;;;;;12.00;9.65;;;24.40;75.40;;;;;;5050137;28;20059;-76
2021/06/17 07:31:17;;;;;;;11.50;10.30;;;24.50;74.80;;;;;;5050855;28;20053;-76
2021/06/17 07:33:43;;;;;;;10.63;9.63;;;24.60;73.70;;;;;;5050204;28;20397;-76
2021/06/17 07:36:10;;;;;;;11.98;9.25;;;24.70;72.60;;;;;;5050635;28;20628;-75
2021/06/17 07:38:36;;;;;;;11.05;9.45;;;24.80;72.00;;;;;;5050915;28;20474;-76
2021/06/17 07:41:01;;;;;;;10.98;9.93;;;24.90;71.40;;;;;;5051131;28;20056;-75
2021/06/17 07:43:27;;;;;;;12.23;9.38;;;24.90;70.80;;;;;;5051629;28;20508;-77
2021/06/17 07:45:52;;;;;;;10.95;9.68;;;25.00;70.40;;;;;;5052178;28;20049;-76
2021/06/17 07:48:18;;;;;;;10.93;9.10;;;25.10;70.70;;;;;;5050634;28;20040;-76
2021/06/17 07:50:44;;;;;;;10.90;9.85;;;25.20;70.90;;;;;;5051829;28;20052;-74
2021/06/17 07:53:10;;;;;;;10.27;7.93;;;25.30;70.10;;;;;;5050953;28;20045;-76
2021/06/17 07:55:36;;;;;;;12.00;8.80;;;25.30;69.00;;;;;;5051591;28;20103;-76
2021/06/17 07:58:02;;;;;;;9.57;8.68;;;25.40;68.80;;;;;;5051541;28;20056;-75
2021/06/17 08:00:29;;;;;;;15.95;9.63;;;25.50;69.00;;;;;;5050785;28;20052;-76
2021/06/17 08:02:59;;;;;;;11.15;9.63;;;25.60;68.60;;;;;;5050850;28;20099;-77
2021/06/17 08:05:26;;;;;;;10.55;8.43;;;25.60;67.80;;;;;;5051634;28;20045;-77
2021/06/17 08:07:52;;;;;;;10.88;8.45;;;25.70;67.70;;;;;;5050763;28;20049;-77
2021/06/17 08:10:18;;;;;;;9.80;8.05;;;25.80;67.50;;;;;;5050390;28;20053;-77
2021/06/17 08:12:45;;;;;;;10.30;9.23;;;25.90;66.50;;;;;;5050323;28;20049;-78
2021/06/17 08:15:11;;;;;;;10.10;8.07;;;26.00;65.70;;;;;;5048343;28;20049;-77
2021/06/17 08:17:36;;;;;;;10.20;8.27;;;26.10;65.50;;;;;;5051040;28;20057;-77
2021/06/17 08:20:04;;;;;;;10.77;8.68;;;26.20;64.90;;;;;;5051019;28;20068;-77
2021/06/17 08:22:29;;;;;;;11.23;9.07;;;26.40;64.70;;;;;;5050538;28;20049;-77
2021/06/17 08:24:55;;;;;;;9.73;7.90;;;26.50;64.70;;;;;;5051368;28;20132;-76
2021/06/17 08:27:22;;;;;;;11.48;8.52;;;26.60;64.20;;;;;;5050682;28;20140;-76
2021/06/17 08:29:47;;;;;;;12.02;8.32;;;26.70;63.80;;;;;;5050186;28;20469;-75
2021/06/17 08:32:14;;;;;;;10.00;8.68;;;26.70;63.10;;;;;;5050448;28;20049;-76
2021/06/17 08:34:40;;;;;;;9.63;8.00;;;26.90;63.10;;;;;;5051355;28;20048;-76
2021/06/17 08:37:06;;;;;;;8.18;7.38;;;27.00;62.30;;;;;;5050081;28;20055;-77
2021/06/17 08:39:32;;;;;;;10.52;7.30;;;27.10;62.10;;;;;;5050963;28;20044;-76
2021/06/17 08:41:59;;;;;;;9.07;8.18;;;27.20;62.20;;;;;;5049888;28;20461;-74
2021/06/17 08:44:24;;;;;;;10.02;8.25;;;27.40;61.30;;;;;;5050191;28;20049;-77
2021/06/17 08:46:51;;;;;;;10.60;7.43;;;27.50;61.40;;;;;;5050957;28;20331;-77
2021/06/17 08:49:19;;;;;;;9.52;8.20;;;27.70;61.10;;;;;;5050670;28;20049;-76
2021/06/17 08:51:47;;;;;;;8.80;7.50;;;27.80;60.60;;;;;;5050756;28;20498;-76
2021/06/17 08:54:19;;;;;;;8.52;7.63;;;28.00;61.00;;;;;;5050652;28;20056;-76
2021/06/17 08:56:45;;;;;;;9.48;7.55;;;28.10;60.40;;;;;;5047864;28;20122;-75
2021/06/17 08:59:13;;;;;;;11.10;8.00;;;28.20;60.30;;;;;;5048228;28;20053;-76
2021/06/17 09:01:39;;;;;;;8.43;7.63;;;28.20;59.80;;;;;;5048769;28;20382;-75
2021/06/17 09:04:23;;;;;;;11.25;8.27;;;28.30;59.80;;;;;;5047838;28;20041;-76
2021/06/17 09:07:01;;;;;;;11.13;8.43;;;28.40;59.40;;;;;;5049077;28;20075;-76
2021/06/17 09:09:44;;;;;;;9.07;8.18;;;28.40;59.70;;;;;;5049060;28;20049;-76
2021/06/17 09:12:16;;;;;;;10.82;8.05;;;28.50;60.10;;;;;;5049657;28;20075;-76
2021/06/17 09:14:51;;;;;;;9.75;8.05;;;28.50;60.70;;;;;;5053853;28;20053;-76
2021/06/17 09:17:19;;;;;;;9.60;8.30;;;28.60;61.10;;;;;;5054615;28;20056;-76
2021/06/17 09:19:48;;;;;;;8.52;7.72;;;28.70;61.20;;;;;;5053976;28;20067;-76
2021/06/17 09:22:18;;;;;;;8.90;8.02;;;28.90;60.30;;;;;;5054705;28;20053;-77
2021/06/17 09:24:47;;;;;;;10.48;9.40;;;29.00;59.80;;;;;;5054177;28;20052;-76
2021/06/17 09:27:29;;;;;;;9.73;7.95;;;29.30;59.40;;;;;;5054605;28;20136;-77
2021/06/17 09:29:58;;;;;;;8.32;6.50;;;29.50;58.10;;;;;;5054542;28;20052;-76
2021/06/17 09:32:32;;;;;;;8.07;6.32;;;29.70;57.60;;;;;;5054331;28;20470;-76
2021/06/17 09:34:58;;;;;;;7.97;6.45;;;29.90;55.80;;;;;;5054159;28;20141;-76
2021/06/17 09:37:37;;;;;;;8.93;6.03;;;30.10;55.20;;;;;;5054387;28;20136;-76
2021/06/17 09:40:27;;;;;;;6.63;5.72;;;30.20;53.50;;;;;;5053130;28;20069;-76
2021/06/17 09:43:13;;;;;;;9.18;6.25;;;30.40;51.70;;;;;;5054133;28;20057;-77
2021/06/17 09:45:41;;;;;;;7.90;5.78;;;30.50;51.90;;;;;;5053767;28;20132;-76
2021/06/17 09:48:46;;;;;;;8.70;6.40;;;30.60;51.00;;;;;;5054194;28;20065;-76
2021/06/17 09:51:42;;;;;;;7.07;6.15;;;30.70;51.60;;;;;;5053688;28;20045;-77
2021/06/17 09:54:28;;;;;;;10.57;6.40;;;30.80;51.20;;;;;;5036798;28;20044;-76
2021/06/17 09:57:03;;;;;;;9.32;6.13;;;30.90;51.00;;;;;;5054117;28;20048;-77
2021/06/17 09:59:36;;;;;;;7.07;6.00;;;31.00;51.30;;;;;;5053859;28;20124;-76
2021/06/17 10:02:07;;;;;;;7.95;6.88;;;31.10;51.40;;;;;;5053414;28;20049;-76
2021/06/17 10:04:33;;;;;;;;;;;31.10;51.20;;;;;;5054544;28;20158;-77
2021/06/17 10:07:00;;;;;;;7.70;6.82;;;31.10;52.30;;;;;;5052932;28;20440;-76
2021/06/17 10:09:25;;;;;;;7.60;6.90;;;31.10;51.80;;;;;;5054035;28;20520;-76
2021/06/17 10:11:52;;;;;;;10.68;6.72;;;31.20;51.70;;;;;;5053944;28;20045;-77
2021/06/17 10:14:18;;;;;;;12.48;7.22;;;31.30;51.50;;;;;;5053007;28;20079;-76
2021/06/17 10:16:45;;;;;;;9.18;6.55;;;31.30;51.10;;;;;;5053870;28;20053;-76
2021/06/17 10:19:13;;;;;;;10.85;6.50;;;31.30;51.30;;;;;;5053615;28;20049;-75
2021/06/17 10:21:39;;;;;;;12.23;6.15;;;31.40;50.60;;;;;;5052866;28;20099;-77
2021/06/17 10:24:23;;;;;;;7.63;4.63;;;31.40;49.50;;;;;;5053543;28;20048;-77
2021/06/17 10:26:53;;;;;;;6.60;4.97;;;31.40;47.50;;;;;;5053728;28;20080;-77
2021/06/17 10:29:28;;;;;;;6.97;4.78;;;31.40;47.60;;;;;;5052983;28;20068;-78
2021/06/17 10:31:58;;;;;;;4.78;4.38;;;31.50;44.90;;;;;;5053951;28;20386;-77
2021/06/17 10:34:24;;;;;;;6.05;4.43;;;31.40;45.30;;;;;;5053415;28;20057;-76
2021/06/17 10:37:13;;;;;;;5.30;4.78;;;31.50;45.40;;;;;;5052482;28;20056;-76
2021/06/17 10:39:52;;;;;;;7.25;5.03;;;31.50;44.40;;;;;;5053908;28;20052;-76
2021/06/17 10:42:28;;;;;;;8.85;5.22;;;31.50;45.30;;;;;;5052397;28;20785;-75
2021/06/17 10:44:59;;;;;;;8.52;5.47;;;31.70;45.70;;;;;;5053559;28;20045;-76
2021/06/17 10:47:47;;;;;;;8.10;5.32;;;31.60;44.90;;;;;;5053286;28;20187;-75
2021/06/17 10:50:15;;;;;;;9.38;5.75;;;31.70;45.50;;;;;;5052691;28;20049;-76
2021/06/17 10:52:42;;;;;;;7.80;4.85;;;31.80;45.40;;;;;;5053077;28;20516;-75
2021/06/17 10:55:13;;;;;;;7.45;4.82;;;31.90;45.40;;;;;;5052856;28;20041;-75
2021/06/17 10:57:45;;;;;;;6.78;5.20;;;31.90;45.30;;;;;;5052428;28;20056;-74
2021/06/17 11:00:27;;;;;;;7.25;5.70;;;32.00;45.40;;;;;;5052451;28;20072;-75
2021/06/17 11:02:58;;;;;;;7.20;5.07;;;32.00;45.30;;;;;;5053158;28;20052;-75
2021/06/17 11:05:30;;;;;;;7.22;5.32;;;32.10;44.80;;;;;;5052980;28;20045;-75
2021/06/17 11:11:04;;;;;;;5.70;5.13;;;32.30;44.00;;;;;;5052308;28;20053;-75
2021/06/17 11:13:41;;;;;;;11.80;4.90;;;32.30;43.40;;;;;;5053162;28;20045;-75
2021/06/17 11:16:12;;;;;;;6.60;5.43;;;32.30;43.20;;;;;;5052086;28;20501;-75
2021/06/17 11:18:41;;;;;;;8.80;4.85;;;32.40;43.40;;;;;;5051998;28;20048;-75
2021/06/17 11:21:26;;;;;;;6.70;4.78;;;32.50;43.40;;;;;;5052388;28;20404;-76
2021/06/17 11:24:06;;;;;;;5.93;4.43;;;32.50;42.80;;;;;;5052842;28;20063;-75
2021/06/17 11:26:52;;;;;;;6.97;4.00;;;32.50;42.40;;;;;;5052468;28;20049;-76
2021/06/17 11:29:28;;;;;;;6.15;4.10;;;32.60;42.00;;;;;;5052143;28;20391;-76
2021/06/17 11:31:54;;;;;;;5.18;3.67;;;32.60;42.20;;;;;;5051803;28;20049;-76
2021/06/17 11:34:30;;;;;;;7.35;4.35;;;32.70;42.00;;;;;;5051724;28;20057;-76
2021/06/17 11:36:59;;;;;;;9.00;4.60;;;32.70;41.50;;;;;;5051478;28;20467;-77
2021/06/17 11:39:26;;;;;;;6.03;4.28;;;32.80;41.50;;;;;;5051894;28;20079;-76
2021/06/17 11:41:54;;;;;;;6.05;4.07;;;32.80;41.30;;;;;;5052158;28;20061;-76
2021/06/17 11:44:25;;;;;;;5.00;4.03;;;32.80;41.00;;;;;;5051940;28;20045;-76
2021/06/17 11:47:03;;;;;;;6.28;4.40;;;32.90;40.90;;;;;;5051363;28;20045;-76
2021/06/17 11:49:40;;;;;;;4.80;4.38;;;33.00;40.40;;;;;;5051966;28;20056;-77
2021/06/17 11:52:12;;;;;;;6.03;4.35;;;33.00;41.20;;;;;;5051733;28;20205;-77
2021/06/17 11:54:38;;;;;;;6.32;3.90;;;33.00;41.00;;;;;;5052097;28;20132;-76
2021/06/17 11:57:04;;;;;;;6.15;4.35;;;33.10;40.70;;;;;;5051699;28;20071;-77
2021/06/17 11:59:38;;;;;;;5.50;3.50;;;33.10;40.60;;;;;;5051203;28;20064;-77
2021/06/17 12:02:23;;;;;;;5.28;3.63;;;33.20;40.10;;;;;;5051648;28;20045;-77
2021/06/17 12:05:04;;;;;;;5.68;4.00;;;33.30;40.00;;;;;;5051579;28;20390;-78
2021/06/17 12:07:35;;;;;;;5.50;4.15;;;33.30;40.00;;;;;;5051201;28;20049;-77
2021/06/17 12:10:21;;;;;;;;;;;33.40;40.30;;;;;;5052091;28;20132;-76
2021/06/17 12:12:50;;;;;;;4.97;3.30;;;33.40;40.70;;;;;;5050851;28;19925;-76
2021/06/17 12:15:26;;;;;;;5.05;3.85;;;33.50;40.50;;;;;;5050280;28;20532;-76
2021/06/17 12:17:54;;;;;;;6.43;3.53;;;33.50;39.50;;;;;;5051287;28;20401;-77
2021/06/17 12:20:25;;;;;;;5.72;3.47;;;33.40;39.10;;;;;;5050541;28;20053;-76
2021/06/17 12:22:57;;;;;;;3.85;3.50;;;33.40;39.00;;;;;;5051202;28;20076;-78
2021/06/17 12:25:25;;;;;;;5.28;2.90;;;33.40;38.10;;;;;;5051445;28;20045;-77
2021/06/17 12:27:55;;;;;;;5.10;3.30;;;33.50;38.30;;;;;;5050588;28;20120;-78
2021/06/17 12:30:26;;;;;;;4.07;3.10;;;33.50;37.70;;;;;;5051334;28;20049;-77
2021/06/17 12:32:54;;;;;;;6.63;3.20;;;33.60;37.50;;;;;;5051518;28;20041;-77
2021/06/17 12:35:21;;;;;;;6.35;3.15;;;33.70;37.80;;;;;;5049994;28;20059;-76
2021/06/17 12:37:55;;;;;;;8.07;3.38;;;33.70;36.80;;;;;;5051441;28;20045;-76
2021/06/17 12:40:39;;;;;;;6.10;2.83;;;33.70;36.70;;;;;;5051158;28;20084;-77
2021/06/17 12:43:20;;;;;;;3.92;3.08;;;33.70;36.90;;;;;;5050455;28;20057;-77
2021/06/17 12:46:07;;;;;;;5.03;2.80;;;33.70;37.30;;;;;;5051551;28;20386;-76
2021/06/17 12:54:09;;;;;;;5.20;3.10;;;33.70;38.00;;;;;;5055338;28;20109;-76
2021/06/17 12:56:36;;;;;;;3.75;3.25;;;33.80;37.90;;;;;;5054792;28;20083;-77
2021/06/17 12:59:02;;;;;;;3.50;3.10;;;33.80;37.50;;;;;;5055035;28;20136;-76
2021/06/17 13:01:48;;;;;;;6.82;2.90;;;33.90;37.20;;;;;;5055367;28;20152;-76